createdAt,value
2016-03-25T00:00:44.434Z,0
2016-03-25T00:01:44.453Z,0
2016-03-25T00:02:44.487Z,0
2016-03-25T00:03:44.505Z,0
2016-03-25T00:04:44.476Z,0
2016-03-25T00:05:44.385Z,0
2016-03-25T00:06:44.521Z,0
2016-03-25T00:07:44.538Z,0
2016-03-25T00:08:44.587Z,0
2016-03-25T00:09:44.575Z,0
2016-03-25T00:10:44.593Z,0
2016-03-25T00:11:44.565Z,0
2016-03-25T00:12:44.583Z,0
2016-03-25T00:13:44.617Z,0
2016-03-25T00:14:44.604Z,0
2016-03-25T00:15:44.638Z,0
2016-03-25T00:16:44.625Z,0
2016-03-25T00:17:44.644Z,0
2016-03-25T00:18:44.630Z,0
2016-03-25T00:19:44.649Z,0
2016-03-25T00:20:44.730Z,0
2016-03-25T00:21:44.685Z,0
2016-03-25T00:22:44.578Z,0
2016-03-25T00:23:44.706Z,0
2016-03-25T00:24:44.740Z,0
2016-03-25T00:25:44.743Z,0
2016-03-25T00:26:44.730Z,0
2016-03-25T00:27:44.748Z,0
2016-03-25T00:28:44.767Z,0
2016-03-25T00:29:44.785Z,0
2016-03-25T00:30:44.787Z,0
2016-03-25T00:31:44.837Z,0
2016-03-25T00:32:44.809Z,0
2016-03-25T00:33:44.671Z,0
2016-03-25T00:34:44.861Z,0
2016-03-25T00:35:44.832Z,0
2016-03-25T00:36:44.851Z,0
2016-03-25T00:37:44.900Z,0
2016-03-25T00:38:44.887Z,0
2016-03-25T00:39:44.906Z,0
2016-03-25T00:40:44.908Z,0
2016-03-25T00:41:44.911Z,0
2016-03-25T00:42:44.961Z,0
2016-03-25T00:43:44.931Z,0
2016-03-25T00:44:44.967Z,0
2016-03-25T00:45:44.969Z,0
2016-03-25T00:46:44.971Z,0
2016-03-25T00:47:44.975Z,0
2016-03-25T00:48:45.008Z,0
2016-03-25T00:49:45.010Z,0
2016-03-25T00:50:45.014Z,0
2016-03-25T00:51:44.906Z,0
2016-03-25T00:52:44.769Z,0
2016-03-25T00:53:45.084Z,0
2016-03-25T00:54:45.055Z,0
2016-03-25T00:55:45.074Z,0
2016-03-25T00:56:45.138Z,0
2016-03-25T00:57:45.110Z,0
2016-03-25T00:58:45.128Z,0
2016-03-25T00:59:45.116Z,0
2016-03-25T01:00:45.180Z,0
2016-03-25T01:01:45.152Z,0
2016-03-25T01:02:45.155Z,0
2016-03-25T01:03:45.189Z,0
2016-03-25T01:04:45.176Z,0
2016-03-25T01:05:45.194Z,0
2016-03-25T01:06:45.244Z,0
2016-03-25T01:07:45.231Z,0
2016-03-25T01:08:45.218Z,0
2016-03-25T01:09:45.221Z,0
2016-03-25T01:10:45.286Z,0
2016-03-25T01:11:45.257Z,0
2016-03-25T01:12:45.259Z,0
2016-03-25T01:13:45.294Z,0
2016-03-25T01:14:45.328Z,0
2016-03-25T01:15:45.315Z,0
2016-03-25T01:16:45.287Z,0
2016-03-25T01:17:45.320Z,0
2016-03-25T01:18:45.354Z,0
2016-03-25T01:19:45.342Z,0
2016-03-25T01:20:45.375Z,0
2016-03-25T01:21:45.394Z,0
2016-03-25T01:22:45.427Z,0
2016-03-25T01:23:45.430Z,0
2016-03-25T01:24:45.433Z,0
2016-03-25T01:25:45.420Z,0
2016-03-25T01:26:45.469Z,0
2016-03-25T01:27:45.457Z,0
2016-03-25T01:28:45.443Z,0
2016-03-25T01:29:45.494Z,0
2016-03-25T01:30:45.527Z,0
2016-03-25T01:31:45.499Z,0
2016-03-25T01:32:45.516Z,0
2016-03-25T01:33:45.535Z,0
2016-03-25T01:34:45.569Z,0
2016-03-25T01:35:45.541Z,0
2016-03-25T01:36:45.543Z,0
2016-03-25T01:37:59.671Z,0
2016-03-25T01:38:45.611Z,0
2016-03-25T01:39:45.582Z,0
2016-03-25T01:40:45.617Z,0
2016-03-25T01:41:45.588Z,0
2016-03-25T01:42:45.684Z,0
2016-03-25T01:43:45.625Z,0
2016-03-25T01:44:45.659Z,0
2016-03-25T01:45:45.645Z,0
2016-03-25T01:46:45.648Z,0
2016-03-25T01:47:45.698Z,0
2016-03-25T01:48:45.684Z,0
2016-03-25T01:49:45.734Z,0
2016-03-25T01:50:45.722Z,0
2016-03-25T01:51:45.708Z,0
2016-03-25T01:52:45.742Z,0
2016-03-25T01:53:45.730Z,0
2016-03-25T01:54:45.763Z,0
2016-03-25T01:55:45.750Z,0
2016-03-25T01:56:47.644Z,0
2016-03-25T01:57:45.819Z,0
2016-03-25T01:58:45.821Z,0
2016-03-25T01:59:45.824Z,0
2016-03-25T02:00:45.858Z,0
2016-03-25T02:01:45.830Z,0
2016-03-25T02:02:45.863Z,0
2016-03-25T02:03:45.849Z,0
2016-03-25T02:04:45.899Z,0
2016-03-25T02:05:45.887Z,0
2016-03-25T02:06:45.749Z,0
2016-03-25T02:07:45.892Z,0
2016-03-25T02:08:45.910Z,0
2016-03-25T02:09:45.945Z,0
2016-03-25T02:10:45.947Z,0
2016-03-25T02:11:45.934Z,0
2016-03-25T02:12:45.953Z,0
2016-03-25T02:13:45.986Z,0
2016-03-25T02:14:45.990Z,0
2016-03-25T02:15:45.976Z,0
2016-03-25T02:16:46.025Z,0
2016-03-25T02:17:45.998Z,0
2016-03-25T02:18:46.078Z,0
2016-03-25T02:19:46.033Z,0
2016-03-25T02:20:46.068Z,0
2016-03-25T02:21:46.055Z,0
2016-03-25T02:22:46.073Z,0
2016-03-25T02:23:46.091Z,0
2016-03-25T02:24:46.078Z,0
2016-03-25T02:25:46.128Z,0
2016-03-25T02:26:46.130Z,0
2016-03-25T02:27:46.133Z,0
2016-03-25T02:28:46.151Z,0
2016-03-25T02:29:46.138Z,0
2016-03-25T02:30:46.173Z,0
2016-03-25T02:31:46.207Z,0
2016-03-25T02:32:46.209Z,0
2016-03-25T02:33:46.197Z,0
2016-03-25T02:34:46.199Z,0
2016-03-25T02:35:46.201Z,0
2016-03-25T02:36:46.220Z,0
2016-03-25T02:37:46.238Z,0
2016-03-25T02:38:46.257Z,0
2016-03-25T02:39:46.307Z,0
2016-03-25T02:40:46.262Z,0
2016-03-25T02:41:46.281Z,0
2016-03-25T02:42:46.284Z,0
2016-03-25T02:43:46.317Z,0
2016-03-25T02:44:46.303Z,0
2016-03-25T02:45:46.181Z,0
2016-03-25T02:46:46.348Z,0
2016-03-25T02:47:46.320Z,0
2016-03-25T02:48:46.293Z,0
2016-03-25T02:49:46.342Z,0
2016-03-25T02:50:46.346Z,0
2016-03-25T02:51:46.323Z,0
2016-03-25T02:52:46.336Z,0
2016-03-25T02:53:46.334Z,0
2016-03-25T02:54:46.347Z,0
2016-03-25T02:55:46.329Z,0
2016-03-25T02:56:46.358Z,0
2016-03-25T02:57:46.375Z,0
2016-03-25T02:58:46.360Z,0
2016-03-25T02:59:46.377Z,0
2016-03-25T03:00:46.283Z,0
2016-03-25T03:01:46.426Z,0
2016-03-25T03:02:46.412Z,0
2016-03-25T03:03:46.445Z,0
2016-03-25T03:04:46.432Z,0
2016-03-25T03:05:46.464Z,0
2016-03-25T03:06:46.482Z,0
2016-03-25T03:07:46.485Z,0
2016-03-25T03:08:46.487Z,0
2016-03-25T03:09:46.504Z,0
2016-03-25T03:10:46.492Z,0
2016-03-25T03:11:46.509Z,0
2016-03-25T03:12:46.543Z,0
2016-03-25T03:13:46.546Z,0
2016-03-25T03:14:46.580Z,0
2016-03-25T03:15:46.551Z,0
2016-03-25T03:16:46.617Z,0
2016-03-25T03:17:46.588Z,0
2016-03-25T03:18:46.591Z,0
2016-03-25T03:19:46.625Z,0
2016-03-25T03:20:46.644Z,0
2016-03-25T03:21:46.646Z,0
2016-03-25T03:22:46.633Z,0
2016-03-25T03:23:46.652Z,0
2016-03-25T03:24:46.669Z,0
2016-03-25T03:25:46.688Z,0
2016-03-25T03:26:46.691Z,0
2016-03-25T03:27:46.708Z,0
2016-03-25T03:28:46.744Z,0
2016-03-25T03:29:46.747Z,0
2016-03-25T03:30:46.733Z,0
2016-03-25T03:31:46.767Z,0
2016-03-25T03:32:46.755Z,0
2016-03-25T03:33:46.772Z,0
2016-03-25T03:34:46.791Z,0
2016-03-25T03:35:46.778Z,0
2016-03-25T03:36:46.843Z,0
2016-03-25T03:37:46.816Z,0
2016-03-25T03:38:46.833Z,0
2016-03-25T03:39:46.851Z,0
2016-03-25T03:40:46.870Z,0
2016-03-25T03:41:46.857Z,0
2016-03-25T03:42:46.921Z,0
2016-03-25T03:43:46.894Z,0
2016-03-25T03:44:46.896Z,0
2016-03-25T03:45:46.930Z,0
2016-03-25T03:46:46.918Z,0
2016-03-25T03:47:46.920Z,0
2016-03-25T03:48:46.985Z,0
2016-03-25T03:49:46.956Z,0
2016-03-25T03:50:46.975Z,0
2016-03-25T03:51:46.962Z,0
2016-03-25T03:52:46.995Z,0
2016-03-25T03:53:46.999Z,0
2016-03-25T03:54:47.001Z,0
2016-03-25T03:55:47.034Z,0
2016-03-25T03:56:47.054Z,0
2016-03-25T03:57:47.040Z,0
2016-03-25T03:58:47.059Z,0
2016-03-25T03:59:47.077Z,0
2016-03-25T04:00:47.111Z,0
2016-03-25T04:01:47.098Z,0
2016-03-25T04:02:47.116Z,0
2016-03-25T04:03:46.947Z,0
2016-03-25T04:04:47.122Z,0
2016-03-25T04:05:47.141Z,0
2016-03-25T04:06:47.127Z,0
2016-03-25T04:07:47.160Z,0
2016-03-25T04:08:47.149Z,0
2016-03-25T04:09:47.182Z,0
2016-03-25T04:10:47.200Z,0
2016-03-25T04:11:47.250Z,0
2016-03-25T04:12:47.205Z,0
2016-03-25T04:13:47.240Z,0
2016-03-25T04:14:47.227Z,0
2016-03-25T04:15:47.245Z,0
2016-03-25T04:16:47.248Z,0
2016-03-25T04:17:47.298Z,0
2016-03-25T04:18:47.269Z,0
2016-03-25T04:19:47.318Z,0
2016-03-25T04:20:47.306Z,0
2016-03-25T04:21:47.323Z,0
2016-03-25T04:22:47.343Z,0
2016-03-25T04:23:47.329Z,0
2016-03-25T04:24:47.362Z,0
2016-03-25T04:25:47.365Z,0
2016-03-25T04:26:47.384Z,0
2016-03-25T04:27:47.387Z,0
2016-03-25T04:28:47.389Z,0
2016-03-25T04:29:47.408Z,0
2016-03-25T04:30:47.426Z,0
2016-03-25T04:31:47.444Z,0
2016-03-25T04:32:47.463Z,0
2016-03-25T04:33:47.450Z,0
2016-03-25T04:34:47.468Z,0
2016-03-25T04:35:47.456Z,0
2016-03-25T04:36:47.489Z,0
2016-03-25T04:37:47.491Z,0
2016-03-25T04:38:47.511Z,0
2016-03-25T04:39:47.513Z,0
2016-03-25T04:40:47.546Z,0
2016-03-25T04:41:47.565Z,0
2016-03-25T04:42:47.552Z,0
2016-03-25T04:43:47.571Z,0
2016-03-25T04:44:47.574Z,0
2016-03-25T04:45:47.576Z,0
2016-03-25T04:46:47.656Z,0
2016-03-25T04:47:47.597Z,0
2016-03-25T04:48:47.631Z,0
2016-03-25T04:49:47.633Z,0
2016-03-25T04:50:47.637Z,0
2016-03-25T04:51:48.107Z,0
2016-03-25T04:52:47.673Z,0
2016-03-25T04:53:48.004Z,0
2016-03-25T04:54:47.725Z,0
2016-03-25T04:55:47.681Z,0
2016-03-25T04:56:48.089Z,0
2016-03-25T04:57:47.718Z,0
2016-03-25T04:58:47.736Z,0
2016-03-25T04:59:47.770Z,0
2016-03-25T05:00:47.804Z,0
2016-03-25T05:01:47.775Z,0
2016-03-25T05:02:47.762Z,0
2016-03-25T05:03:47.622Z,0
2016-03-25T05:04:47.783Z,0
2016-03-25T05:05:47.801Z,0
2016-03-25T05:06:47.819Z,0
2016-03-25T05:07:47.965Z,0
2016-03-25T05:08:47.858Z,0
2016-03-25T05:09:47.845Z,0
2016-03-25T05:10:47.848Z,0
2016-03-25T05:11:47.897Z,0
2016-03-25T05:12:47.884Z,0
2016-03-25T05:13:47.903Z,0
2016-03-25T05:14:47.905Z,0
2016-03-25T05:15:48.079Z,0
2016-03-25T05:16:47.941Z,0
2016-03-25T05:17:47.944Z,0
2016-03-25T05:18:47.947Z,0
2016-03-25T05:19:47.949Z,0
2016-03-25T05:20:47.999Z,0
2016-03-25T05:21:48.002Z,0
2016-03-25T05:22:48.019Z,0
2016-03-25T05:23:47.988Z,0
2016-03-25T05:24:48.007Z,0
2016-03-25T05:25:48.010Z,0
2016-03-25T05:26:48.060Z,0
2016-03-25T05:27:48.062Z,0
2016-03-25T05:28:48.065Z,0
2016-03-25T05:29:48.068Z,0
2016-03-25T05:30:48.086Z,0
2016-03-25T05:31:48.088Z,0
2016-03-25T05:32:48.091Z,0
2016-03-25T05:33:48.125Z,0
2016-03-25T05:34:48.127Z,0
2016-03-25T05:35:48.162Z,0
2016-03-25T05:36:48.257Z,0
2016-03-25T05:37:48.168Z,0
2016-03-25T05:38:48.154Z,0
2016-03-25T05:39:48.188Z,0
2016-03-25T05:40:48.191Z,0
2016-03-25T05:41:48.209Z,5
2016-03-25T05:42:48.212Z,5
2016-03-25T05:43:48.262Z,5
2016-03-25T05:44:48.245Z,5
2016-03-25T05:45:48.264Z,5
2016-03-25T05:46:48.251Z,5
2016-03-25T05:47:48.285Z,5
2016-03-25T05:48:48.131Z,5
2016-03-25T05:49:48.274Z,5
2016-03-25T05:50:48.340Z,5
2016-03-25T05:51:48.327Z,5
2016-03-25T05:52:48.344Z,5
2016-03-25T05:53:48.411Z,5
2016-03-25T05:54:48.335Z,5
2016-03-25T05:55:48.368Z,5
2016-03-25T05:56:48.388Z,5
2016-03-25T05:57:48.551Z,10
2016-03-25T05:58:48.413Z,10
2016-03-25T05:59:48.260Z,10
2016-03-25T06:00:48.434Z,10
2016-03-25T06:01:48.264Z,10
2016-03-25T06:02:48.455Z,10
2016-03-25T06:03:48.489Z,10
2016-03-25T06:04:48.476Z,10
2016-03-25T06:05:48.479Z,10
2016-03-25T06:06:48.481Z,10
2016-03-25T06:07:48.515Z,15
2016-03-25T06:08:48.690Z,15
2016-03-25T06:09:48.520Z,15
2016-03-25T06:10:48.555Z,15
2016-03-25T06:11:48.542Z,15
2016-03-25T06:12:48.560Z,15
2016-03-25T06:13:48.564Z,15
2016-03-25T06:14:48.566Z,15
2016-03-25T06:15:48.583Z,20
2016-03-25T06:16:48.587Z,20
2016-03-25T06:17:48.636Z,20
2016-03-25T06:18:48.607Z,20
2016-03-25T06:19:48.657Z,20
2016-03-25T06:20:48.644Z,20
2016-03-25T06:21:48.663Z,20
2016-03-25T06:22:48.665Z,20
2016-03-25T06:23:48.824Z,20
2016-03-25T06:24:48.702Z,20
2016-03-25T06:25:48.735Z,20
2016-03-25T06:26:48.738Z,20
2016-03-25T06:27:48.741Z,20
2016-03-25T06:28:48.712Z,20
2016-03-25T06:29:48.746Z,20
2016-03-25T06:30:48.749Z,20
2016-03-25T06:31:48.767Z,20
2016-03-25T06:32:48.832Z,25
2016-03-25T06:33:48.788Z,25
2016-03-25T06:34:48.823Z,30
2016-03-25T06:35:48.810Z,30
2016-03-25T06:36:48.843Z,35
2016-03-25T06:37:48.831Z,35
2016-03-25T06:38:48.881Z,35
2016-03-25T06:39:48.883Z,35
2016-03-25T06:41:02.982Z,35
2016-03-25T06:41:48.873Z,30
2016-03-25T06:42:48.906Z,30
2016-03-25T06:43:48.908Z,30
2016-03-25T06:44:48.928Z,30
2016-03-25T06:45:48.930Z,25
2016-03-25T06:46:48.948Z,25
2016-03-25T06:47:48.983Z,25
2016-03-25T06:48:48.969Z,25
2016-03-25T06:49:49.003Z,25
2016-03-25T06:50:48.991Z,25
2016-03-25T06:51:49.008Z,25
2016-03-25T06:52:49.027Z,30
2016-03-25T06:53:49.139Z,30
2016-03-25T06:54:49.079Z,30
2016-03-25T06:55:49.098Z,30
2016-03-25T06:56:49.069Z,30
2016-03-25T06:57:49.102Z,30
2016-03-25T06:58:49.090Z,30
2016-03-25T06:59:49.077Z,30
2016-03-25T07:00:49.142Z,30
2016-03-25T07:01:49.145Z,30
2016-03-25T07:02:49.148Z,30
2016-03-25T07:03:49.151Z,30
2016-03-25T07:04:49.231Z,30
2016-03-25T07:05:49.171Z,30
2016-03-25T07:06:49.189Z,30
2016-03-25T07:07:49.239Z,35
2016-03-25T07:08:49.273Z,35
2016-03-25T07:09:49.214Z,35
2016-03-25T07:10:49.091Z,35
2016-03-25T07:11:49.251Z,40
2016-03-25T07:12:49.300Z,40
2016-03-25T07:13:49.270Z,40
2016-03-25T07:14:49.305Z,40
2016-03-25T07:15:49.323Z,40
2016-03-25T07:16:49.357Z,40
2016-03-25T07:17:49.344Z,45
2016-03-25T07:18:49.331Z,45
2016-03-25T07:19:49.365Z,45
2016-03-25T07:20:49.384Z,45
2016-03-25T07:21:49.386Z,45
2016-03-25T07:22:49.419Z,45
2016-03-25T07:23:49.595Z,45
2016-03-25T07:24:49.410Z,50
2016-03-25T07:25:49.490Z,50
2016-03-25T07:26:49.446Z,50
2016-03-25T07:27:49.465Z,50
2016-03-25T07:28:49.452Z,50
2016-03-25T07:29:49.486Z,55
2016-03-25T07:30:49.505Z,50
2016-03-25T07:31:49.523Z,50
2016-03-25T07:32:49.526Z,50
2016-03-25T07:33:49.528Z,50
2016-03-25T07:34:49.546Z,55
2016-03-25T07:35:49.564Z,55
2016-03-25T07:36:49.568Z,60
2016-03-25T07:37:49.601Z,60
2016-03-25T07:38:50.088Z,60
2016-03-25T07:39:49.607Z,60
2016-03-25T07:40:49.625Z,60
2016-03-25T07:41:49.642Z,60
2016-03-25T07:42:49.678Z,65
2016-03-25T07:43:49.664Z,65
2016-03-25T07:44:49.729Z,70
2016-03-25T07:45:49.732Z,80
2016-03-25T07:46:49.704Z,85
2016-03-25T07:47:49.706Z,95
2016-03-25T07:48:49.725Z,105
2016-03-25T07:49:49.743Z,115
2016-03-25T07:50:49.745Z,115
2016-03-25T07:51:49.780Z,100
2016-03-25T07:52:49.813Z,85
2016-03-25T07:53:49.691Z,80
2016-03-25T07:54:49.803Z,80
2016-03-25T07:55:49.822Z,85
2016-03-25T07:56:49.824Z,90
2016-03-25T07:57:49.857Z,95
2016-03-25T07:58:49.891Z,100
2016-03-25T07:59:49.911Z,105
2016-03-25T08:00:49.897Z,115
2016-03-25T08:01:50.103Z,110
2016-03-25T08:02:49.935Z,100
2016-03-25T08:03:49.921Z,100
2016-03-25T08:04:49.939Z,110
2016-03-25T08:05:50.004Z,125
2016-03-25T08:06:49.976Z,130
2016-03-25T08:07:49.979Z,120
2016-03-25T08:08:50.043Z,115
2016-03-25T08:09:50.000Z,110
2016-03-25T08:10:50.018Z,100
2016-03-25T08:11:50.067Z,95
2016-03-25T08:12:50.054Z,90
2016-03-25T08:13:50.073Z,75
2016-03-25T08:14:50.059Z,60
2016-03-25T08:15:50.094Z,65
2016-03-25T08:16:50.097Z,70
2016-03-25T08:17:50.115Z,75
2016-03-25T08:18:50.133Z,80
2016-03-25T08:19:50.136Z,85
2016-03-25T08:20:50.201Z,105
2016-03-25T08:21:50.188Z,90
2016-03-25T08:22:50.206Z,120
2016-03-25T08:23:50.194Z,95
2016-03-25T08:24:50.227Z,100
2016-03-25T08:25:50.230Z,145
2016-03-25T08:26:50.249Z,120
2016-03-25T08:27:50.266Z,115
2016-03-25T08:28:50.285Z,115
2016-03-25T08:29:50.272Z,150
2016-03-25T08:30:53.056Z,150
2016-03-25T08:31:50.310Z,170
2016-03-25T08:32:49.577Z,110
2016-03-25T08:33:50.346Z,125
2016-03-25T08:34:50.380Z,105
2016-03-25T08:35:50.382Z,125
2016-03-25T08:36:50.401Z,130
2016-03-25T08:37:50.418Z,130
2016-03-25T08:38:50.421Z,125
2016-03-25T08:39:50.423Z,125
2016-03-25T08:40:50.442Z,110
2016-03-25T08:41:50.461Z,95
2016-03-25T08:42:50.464Z,90
2016-03-25T08:43:50.482Z,90
2016-03-25T08:44:50.484Z,80
2016-03-25T08:45:50.518Z,75
2016-03-25T08:46:50.521Z,75
2016-03-25T08:47:50.539Z,75
2016-03-25T08:48:50.542Z,75
2016-03-25T08:49:50.608Z,80
2016-03-25T08:50:50.611Z,80
2016-03-25T08:51:50.598Z,70
2016-03-25T08:52:50.616Z,60
2016-03-25T08:53:50.619Z,50
2016-03-25T08:54:50.636Z,55
2016-03-25T08:55:50.670Z,55
2016-03-25T08:56:50.689Z,50
2016-03-25T08:57:50.675Z,45
2016-03-25T08:58:50.710Z,50
2016-03-25T08:59:50.696Z,60
2016-03-25T09:00:50.730Z,65
2016-03-25T09:01:50.733Z,70
2016-03-25T09:02:50.768Z,70
2016-03-25T09:03:50.755Z,70
2016-03-25T09:04:50.819Z,80
2016-03-25T09:05:50.806Z,95
2016-03-25T09:06:50.668Z,105
2016-03-25T09:07:50.843Z,110
2016-03-25T09:08:50.845Z,110
2016-03-25T09:09:50.864Z,100
2016-03-25T09:10:50.898Z,100
2016-03-25T09:11:50.885Z,105
2016-03-25T09:12:50.903Z,110
2016-03-25T09:13:50.906Z,100
2016-03-25T09:14:50.940Z,115
2016-03-25T09:15:50.959Z,120
2016-03-25T09:16:50.961Z,115
2016-03-25T09:17:50.979Z,95
2016-03-25T09:18:51.045Z,100
2016-03-25T09:19:50.985Z,120
2016-03-25T09:20:51.003Z,110
2016-03-25T09:21:51.053Z,90
2016-03-25T09:22:51.056Z,85
2016-03-25T09:23:51.090Z,85
2016-03-25T09:24:51.092Z,105
2016-03-25T09:25:51.095Z,95
2016-03-25T09:26:51.129Z,115
2016-03-25T09:27:51.116Z,105
2016-03-25T09:28:51.134Z,95
2016-03-25T09:29:51.153Z,95
2016-03-25T09:30:51.155Z,90
2016-03-25T09:31:51.189Z,80
2016-03-25T09:32:51.224Z,75
2016-03-25T09:33:51.241Z,75
2016-03-25T09:34:51.213Z,75
2016-03-25T09:35:51.263Z,75
2016-03-25T09:36:51.280Z,80
2016-03-25T09:37:51.283Z,80
2016-03-25T09:38:51.318Z,75
2016-03-25T09:39:51.288Z,65
2016-03-25T09:40:51.307Z,60
2016-03-25T09:41:51.309Z,55
2016-03-25T09:42:51.360Z,55
2016-03-25T09:43:51.362Z,60
2016-03-25T09:44:51.381Z,65
2016-03-25T09:45:51.384Z,65
2016-03-25T09:46:51.417Z,65
2016-03-25T09:47:51.403Z,65
2016-03-25T09:48:51.469Z,60
2016-03-25T09:49:51.440Z,60
2016-03-25T09:50:51.490Z,65
2016-03-25T09:51:51.461Z,70
2016-03-25T09:52:51.496Z,75
2016-03-25T09:53:51.514Z,85
2016-03-25T09:54:51.516Z,90
2016-03-25T09:55:51.536Z,85
2016-03-25T09:56:51.538Z,70
2016-03-25T09:57:51.587Z,60
2016-03-25T09:58:51.574Z,50
2016-03-25T09:59:51.453Z,45
2016-03-25T10:00:51.611Z,45
2016-03-25T10:01:51.630Z,45
2016-03-25T10:02:51.648Z,50
2016-03-25T10:03:51.682Z,60
2016-03-25T10:04:51.669Z,65
2016-03-25T10:05:51.672Z,70
2016-03-25T10:06:51.721Z,65
2016-03-25T10:07:51.755Z,65
2016-03-25T10:08:51.710Z,60
2016-03-25T10:09:51.729Z,60
2016-03-25T10:10:51.763Z,60
2016-03-25T10:11:51.749Z,60
2016-03-25T10:12:51.784Z,65
2016-03-25T10:13:51.787Z,70
2016-03-25T10:14:51.821Z,75
2016-03-25T10:15:51.807Z,70
2016-03-25T10:16:51.887Z,65
2016-03-25T10:17:51.860Z,60
2016-03-25T10:18:51.862Z,55
2016-03-25T10:19:51.881Z,50
2016-03-25T10:20:51.915Z,50
2016-03-25T10:21:51.902Z,50
2016-03-25T10:22:51.936Z,60
2016-03-25T10:23:51.953Z,70
2016-03-25T10:24:51.957Z,75
2016-03-25T10:25:51.975Z,80
2016-03-25T10:26:51.994Z,75
2016-03-25T10:27:52.011Z,80
2016-03-25T10:28:52.014Z,80
2016-03-25T10:29:52.032Z,90
2016-03-25T10:30:52.035Z,90
2016-03-25T10:31:52.085Z,85
2016-03-25T10:32:52.072Z,70
2016-03-25T10:33:52.090Z,60
2016-03-25T10:34:52.108Z,60
2016-03-25T10:35:52.111Z,60
2016-03-25T10:36:52.160Z,60
2016-03-25T10:37:52.163Z,65
2016-03-25T10:38:52.182Z,60
2016-03-25T10:39:52.184Z,55
2016-03-25T10:40:52.202Z,50
2016-03-25T10:41:52.190Z,55
2016-03-25T10:42:52.223Z,65
2016-03-25T10:43:52.226Z,65
2016-03-25T10:44:52.260Z,65
2016-03-25T10:45:52.278Z,65
2016-03-25T10:46:52.312Z,70
2016-03-25T10:47:52.284Z,75
2016-03-25T10:48:52.318Z,75
2016-03-25T10:49:52.320Z,75
2016-03-25T10:50:52.339Z,75
2016-03-25T10:51:52.357Z,65
2016-03-25T10:52:52.375Z,60
2016-03-25T10:53:52.378Z,50
2016-03-25T10:54:52.381Z,45
2016-03-25T10:55:52.414Z,45
2016-03-25T10:56:52.433Z,50
2016-03-25T10:57:52.436Z,50
2016-03-25T10:58:52.469Z,55
2016-03-25T10:59:52.488Z,55
2016-03-25T11:00:52.506Z,55
2016-03-25T11:01:52.508Z,50
2016-03-25T11:02:52.527Z,50
2016-03-25T11:03:52.530Z,65
2016-03-25T11:04:52.533Z,75
2016-03-25T11:05:52.582Z,85
2016-03-25T11:06:52.413Z,85
2016-03-25T11:07:52.588Z,80
2016-03-25T11:08:52.606Z,75
2016-03-25T11:09:52.609Z,70
2016-03-25T11:10:52.643Z,75
2016-03-25T11:11:52.660Z,70
2016-03-25T11:12:52.679Z,70
2016-03-25T11:13:52.682Z,70
2016-03-25T11:14:52.700Z,75
2016-03-25T11:15:52.718Z,75
2016-03-25T11:16:52.737Z,75
2016-03-25T11:17:52.739Z,75
2016-03-25T11:18:52.758Z,70
2016-03-25T11:19:52.761Z,70
2016-03-25T11:20:52.779Z,70
2016-03-25T11:21:52.812Z,70
2016-03-25T11:22:52.862Z,70
2016-03-25T11:23:52.818Z,70
2016-03-25T11:24:52.853Z,65
2016-03-25T11:25:52.856Z,65
2016-03-25T11:26:52.873Z,70
2016-03-25T11:27:52.892Z,70
2016-03-25T11:28:52.911Z,75
2016-03-25T11:29:52.929Z,75
2016-03-25T11:30:52.947Z,75
2016-03-25T11:31:52.950Z,70
2016-03-25T11:32:52.968Z,70
2016-03-25T11:33:52.986Z,65
2016-03-25T11:34:52.989Z,65
2016-03-25T11:35:52.992Z,70
2016-03-25T11:36:53.088Z,65
2016-03-25T11:37:53.075Z,65
2016-03-25T11:38:53.047Z,65
2016-03-25T11:39:53.066Z,65
2016-03-25T11:40:53.164Z,60
2016-03-25T11:41:53.205Z,55
2016-03-25T11:42:52.822Z,50
2016-03-25T11:43:57.709Z,50
2016-03-25T11:44:53.227Z,40
2016-03-25T11:45:53.168Z,35
2016-03-25T11:46:53.170Z,30
2016-03-25T11:47:53.173Z,25
2016-03-25T11:48:53.206Z,30
2016-03-25T11:49:53.209Z,35
2016-03-25T11:50:53.274Z,40
2016-03-25T11:51:53.261Z,45
2016-03-25T11:52:53.264Z,45
2016-03-25T11:53:53.250Z,45
2016-03-25T11:54:53.085Z,45
2016-03-25T11:55:53.296Z,50
2016-03-25T11:56:53.303Z,55
2016-03-25T11:57:53.294Z,55
2016-03-25T11:58:53.276Z,55
2016-03-25T11:59:53.353Z,55
2016-03-25T12:00:53.320Z,45
2016-03-25T12:01:53.304Z,40
2016-03-25T12:02:53.333Z,40
2016-03-25T12:03:53.334Z,40
2016-03-25T12:04:53.351Z,40
2016-03-25T12:05:53.385Z,45
2016-03-25T12:06:53.386Z,45
2016-03-25T12:07:53.388Z,50
2016-03-25T12:08:53.404Z,60
2016-03-25T12:09:53.407Z,65
2016-03-25T12:10:53.440Z,65
2016-03-25T12:11:53.723Z,65
2016-03-25T12:12:53.459Z,65
2016-03-25T12:13:53.493Z,70
2016-03-25T12:14:53.496Z,70
2016-03-25T12:15:53.670Z,70
2016-03-25T12:16:53.580Z,75
2016-03-25T12:17:53.551Z,80
2016-03-25T12:18:53.553Z,80
2016-03-25T12:19:53.634Z,75
2016-03-25T12:20:53.622Z,65
2016-03-25T12:21:53.593Z,55
2016-03-25T12:22:53.597Z,40
2016-03-25T12:23:53.630Z,35
2016-03-25T12:24:53.367Z,35
2016-03-25T12:25:53.650Z,35
2016-03-25T12:26:53.685Z,40
2016-03-25T12:27:53.718Z,45
2016-03-25T12:28:53.690Z,45
2016-03-25T12:29:53.708Z,50
2016-03-25T12:30:53.742Z,50
2016-03-25T12:31:53.746Z,55
2016-03-25T12:32:53.763Z,60
2016-03-25T12:33:53.781Z,65
2016-03-25T12:34:53.800Z,75
2016-03-25T12:35:53.802Z,80
2016-03-25T12:36:53.821Z,80
2016-03-25T12:37:53.854Z,80
2016-03-25T12:38:53.826Z,80
2016-03-25T12:39:53.751Z,80
2016-03-25T12:40:53.863Z,80
2016-03-25T12:41:53.897Z,80
2016-03-25T12:42:53.915Z,80
2016-03-25T12:43:53.934Z,80
2016-03-25T12:44:53.920Z,80
2016-03-25T12:45:53.954Z,80
2016-03-25T12:46:53.956Z,80
2016-03-25T12:47:53.976Z,80
2016-03-25T12:48:54.009Z,80
2016-03-25T12:49:54.028Z,80
2016-03-25T12:50:54.014Z,80
2016-03-25T12:51:54.033Z,80
2016-03-25T12:52:54.067Z,75
2016-03-25T12:53:54.069Z,75
2016-03-25T12:54:54.057Z,75
2016-03-25T12:55:54.091Z,75
2016-03-25T12:56:54.094Z,70
2016-03-25T12:57:54.112Z,70
2016-03-25T12:58:54.130Z,70
2016-03-25T12:59:54.164Z,65
2016-03-25T13:00:54.166Z,65
2016-03-25T13:01:54.185Z,65
2016-03-25T13:02:54.188Z,65
2016-03-25T13:03:54.252Z,60
2016-03-25T13:04:54.224Z,60
2016-03-25T13:05:54.227Z,60
2016-03-25T13:06:54.245Z,60
2016-03-25T13:07:54.295Z,60
2016-03-25T13:08:54.282Z,55
2016-03-25T13:09:54.301Z,55
2016-03-25T13:10:54.475Z,55
2016-03-25T13:11:54.306Z,55
2016-03-25T13:12:54.339Z,50
2016-03-25T13:13:54.343Z,50
2016-03-25T13:14:54.345Z,50
2016-03-25T13:15:54.364Z,50
2016-03-25T13:16:54.398Z,50
2016-03-25T13:17:54.384Z,45
2016-03-25T13:18:54.450Z,40
2016-03-25T13:19:54.420Z,40
2016-03-25T13:20:54.455Z,40
2016-03-25T13:21:54.458Z,45
2016-03-25T13:22:54.492Z,45
2016-03-25T13:23:54.478Z,45
2016-03-25T13:24:54.872Z,45
2016-03-25T13:25:54.515Z,45
2016-03-25T13:26:54.534Z,45
2016-03-25T13:27:54.536Z,50
2016-03-25T13:28:54.555Z,50
2016-03-25T13:29:54.558Z,45
2016-03-25T13:30:54.591Z,45
2016-03-25T13:31:54.594Z,45
2016-03-25T13:32:54.643Z,45
2016-03-25T13:33:54.630Z,45
2016-03-25T13:34:54.633Z,45
2016-03-25T13:35:54.652Z,45
2016-03-25T13:36:54.654Z,40
2016-03-25T13:37:54.673Z,35
2016-03-25T13:38:54.721Z,35
2016-03-25T13:39:54.944Z,40
2016-03-25T13:40:54.727Z,40
2016-03-25T13:41:54.574Z,40
2016-03-25T13:42:54.749Z,40
2016-03-25T13:43:54.751Z,40
2016-03-25T13:44:54.770Z,40
2016-03-25T13:45:54.647Z,45
2016-03-25T13:46:54.790Z,45
2016-03-25T13:47:54.840Z,45
2016-03-25T13:48:54.812Z,45
2016-03-25T13:49:54.845Z,45
2016-03-25T13:50:54.848Z,40
2016-03-25T13:51:54.881Z,45
2016-03-25T13:52:55.026Z,45
2016-03-25T13:53:55.137Z,45
2016-03-25T13:54:54.797Z,45
2016-03-25T13:55:54.940Z,45
2016-03-25T13:56:54.958Z,45
2016-03-25T13:57:54.961Z,45
2016-03-25T13:58:54.963Z,45
2016-03-25T13:59:54.997Z,40
2016-03-25T14:00:55.000Z,40
2016-03-25T14:01:55.019Z,40
2016-03-25T14:02:55.036Z,40
2016-03-25T14:03:55.039Z,40
2016-03-25T14:04:55.057Z,40
2016-03-25T14:05:55.061Z,40
2016-03-25T14:06:55.079Z,35
2016-03-25T14:07:55.082Z,35
2016-03-25T14:08:55.146Z,40
2016-03-25T14:09:54.993Z,45
2016-03-25T14:10:55.121Z,45
2016-03-25T14:11:55.124Z,45
2016-03-25T14:12:55.173Z,45
2016-03-25T14:13:55.379Z,45
2016-03-25T14:14:55.162Z,45
2016-03-25T14:15:55.212Z,45
2016-03-25T14:16:55.199Z,45
2016-03-25T14:17:55.217Z,45
2016-03-25T14:18:55.221Z,45
2016-03-25T14:19:55.254Z,45
2016-03-25T14:20:55.257Z,45
2016-03-25T14:21:55.291Z,45
2016-03-25T14:22:55.294Z,45
2016-03-25T14:23:55.359Z,45
2016-03-25T14:24:55.315Z,45
2016-03-25T14:25:55.333Z,40
2016-03-25T14:26:55.336Z,40